createdAt,value
2022-08-07T00:01:43.798Z,12.70
2022-08-07T00:04:09.266Z,12.70
2022-08-07T00:06:36.569Z,12.60
2022-08-07T00:09:16.942Z,12.60
2022-08-07T00:11:56.118Z,12.60
2022-08-07T00:14:31.682Z,12.50
2022-08-07T00:17:02.920Z,12.50
2022-08-07T00:20:00.046Z,12.40
2022-08-07T00:22:30.796Z,12.40
2022-08-07T00:25:07.343Z,12.40
2022-08-07T00:27:52.733Z,12.30
2022-08-07T00:30:21.638Z,12.30
2022-08-07T00:32:56.736Z,12.20
2022-08-07T00:35:23.738Z,12.20
2022-08-07T00:37:51.167Z,12.20
2022-08-07T00:40:40.130Z,12.10
2022-08-07T00:43:09.796Z,12.10
2022-08-07T00:45:38.718Z,12.10
2022-08-07T00:48:18.259Z,12.00
2022-08-07T00:50:50.670Z,12.00
2022-08-07T00:53:20.084Z,12.00
2022-08-07T00:56:02.646Z,12.00
2022-08-07T00:58:31.528Z,11.90
2022-08-07T01:00:58.857Z,11.80
2022-08-07T01:03:55.450Z,11.80
2022-08-07T01:06:13.117Z,11.80
2022-08-07T01:08:51.263Z,11.80
2022-08-07T01:12:04.913Z,11.70
2022-08-07T01:14:08.886Z,11.70
2022-08-07T01:16:36.991Z,11.70
2022-08-07T01:19:18.074Z,11.70
2022-08-07T01:21:48.899Z,11.70
2022-08-07T01:24:21.181Z,11.70
2022-08-07T01:26:51.712Z,11.70
2022-08-07T01:29:23.410Z,11.60
2022-08-07T01:31:55.674Z,11.60
2022-08-07T01:34:31.096Z,11.50
2022-08-07T01:36:58.883Z,11.40
2022-08-07T01:39:40.535Z,11.40
2022-08-07T01:42:38.434Z,11.40
2022-08-07T01:45:15.761Z,11.30
2022-08-07T01:48:19.785Z,11.30
2022-08-07T01:50:32.093Z,11.30
2022-08-07T01:53:02.215Z,11.30
2022-08-07T01:55:44.086Z,11.30
2022-08-07T01:58:27.455Z,11.30
2022-08-07T02:01:09.838Z,11.20
2022-08-07T02:03:56.286Z,11.20
2022-08-07T02:06:31.175Z,11.20
2022-08-07T02:09:03.816Z,11.20
2022-08-07T02:12:02.741Z,11.10
2022-08-07T02:14:36.027Z,11.20
2022-08-07T02:17:09.974Z,11.10
2022-08-07T02:20:07.732Z,11.10
2022-08-07T02:22:30.042Z,11.10
2022-08-07T02:24:58.100Z,11.00
2022-08-07T02:27:34.331Z,11.00
2022-08-07T02:30:03.984Z,11.00
2022-08-07T02:32:39.613Z,11.00
2022-08-07T02:36:27.262Z,11.00
2022-08-07T02:38:14.290Z,10.90
2022-08-07T02:40:44.169Z,10.90
2022-08-07T02:43:15.332Z,10.90
2022-08-07T02:46:01.465Z,10.90
2022-08-07T02:48:30.209Z,10.90
2022-08-07T02:51:03.277Z,10.90
2022-08-07T02:53:38.922Z,10.80
2022-08-07T02:56:17.553Z,10.80
2022-08-07T02:58:51.247Z,10.80
2022-08-07T03:01:35.387Z,10.80
2022-08-07T03:04:07.722Z,10.70
2022-08-07T03:06:41.505Z,10.70
2022-08-07T03:09:11.268Z,10.70
2022-08-07T03:11:52.273Z,10.70
2022-08-07T03:14:25.955Z,10.70
2022-08-07T03:16:55.983Z,10.60
2022-08-07T03:19:23.953Z,10.60
2022-08-07T03:21:56.599Z,10.60
2022-08-07T03:24:27.493Z,10.60
2022-08-07T03:27:00.095Z,10.60
2022-08-07T03:29:37.692Z,10.60
2022-08-07T03:32:08.350Z,10.60
2022-08-07T03:34:47.535Z,10.60
2022-08-07T03:37:32.828Z,10.60
2022-08-07T03:40:16.748Z,10.50
2022-08-07T03:42:44.527Z,10.50
2022-08-07T03:45:12.268Z,10.40
2022-08-07T03:47:57.931Z,10.40
2022-08-07T03:50:25.362Z,10.40
2022-08-07T03:52:58.391Z,10.40
2022-08-07T03:55:52.833Z,10.30
2022-08-07T03:59:06.835Z,10.30
2022-08-07T04:01:03.342Z,10.30
2022-08-07T04:03:49.819Z,10.30
2022-08-07T04:06:37.309Z,10.30
2022-08-07T04:09:05.553Z,10.20
2022-08-07T04:12:24.031Z,10.20
2022-08-07T04:14:37.750Z,10.10
2022-08-07T04:17:20.583Z,10.10
2022-08-07T04:19:55.035Z,10.10
2022-08-07T04:22:27.661Z,10.00
2022-08-07T04:25:00.983Z,10.10
2022-08-07T04:27:28.932Z,10.10
2022-08-07T04:30:05.366Z,10.10
2022-08-07T04:32:44.615Z,10.10
2022-08-07T04:35:13.010Z,10.10
2022-08-07T04:37:40.488Z,10.10
2022-08-07T04:40:30.066Z,10.10
2022-08-07T04:43:01.837Z,10.10
2022-08-07T04:45:57.234Z,10.10
2022-08-07T04:48:50.972Z,10.20
2022-08-07T04:51:27.716Z,10.20
2022-08-07T04:54:14.710Z,10.40
2022-08-07T04:58:16.493Z,10.60
2022-08-07T05:00:10.945Z,10.80
2022-08-07T05:03:02.694Z,11.00
2022-08-07T05:05:59.637Z,11.10
2022-08-07T05:08:59.519Z,11.20
2022-08-07T05:11:58.398Z,11.30
2022-08-07T05:14:52.110Z,11.60
2022-08-07T05:17:50.367Z,11.80
2022-08-07T05:20:18.367Z,12.00
2022-08-07T05:22:49.332Z,12.30
2022-08-07T05:25:36.678Z,12.50
2022-08-07T05:28:20.103Z,12.60
2022-08-07T05:30:52.140Z,12.70
2022-08-07T05:33:21.220Z,12.90
2022-08-07T05:35:53.006Z,12.90
2022-08-07T05:38:58.365Z,13.10
2022-08-07T05:41:14.371Z,13.20
2022-08-07T05:44:08.635Z,13.40
2022-08-07T05:46:37.050Z,13.60
2022-08-07T05:49:11.674Z,13.70
2022-08-07T05:51:42.178Z,13.70
2022-08-07T05:54:30.100Z,13.90
2022-08-07T05:56:58.753Z,14.10
2022-08-07T05:59:27.371Z,14.40
2022-08-07T06:01:56.881Z,14.60
2022-08-07T06:04:26.355Z,14.90
2022-08-07T06:07:03.970Z,15.00
2022-08-07T06:10:03.749Z,15.10
2022-08-07T06:12:21.034Z,15.30
2022-08-07T06:14:55.045Z,15.60
2022-08-07T06:17:31.894Z,15.70
2022-08-07T06:20:05.951Z,15.90
2022-08-07T06:22:42.210Z,15.90
2022-08-07T06:25:29.014Z,16.00
2022-08-07T06:28:06.911Z,16.10
2022-08-07T06:30:38.083Z,16.30
2022-08-07T06:33:15.948Z,16.40
2022-08-07T06:35:47.833Z,16.60
2022-08-07T06:38:30.369Z,16.70
2022-08-07T06:40:59.049Z,16.90
2022-08-07T06:43:39.524Z,17.10
2022-08-07T06:46:12.322Z,17.30
2022-08-07T06:48:42.127Z,17.50
2022-08-07T06:51:16.839Z,17.80
2022-08-07T06:55:29.297Z,18.00
2022-08-07T06:56:55.341Z,18.20
2022-08-07T07:00:11.912Z,18.40
2022-08-07T07:02:48.414Z,18.60
2022-08-07T07:05:12.600Z,18.90
2022-08-07T07:08:00.215Z,19.00
2022-08-07T07:10:34.863Z,19.40
2022-08-07T07:13:56.330Z,19.80
2022-08-07T07:16:30.867Z,20.00
2022-08-07T07:19:11.457Z,20.10
2022-08-07T07:22:11.403Z,20.40
2022-08-07T07:24:42.988Z,20.60
2022-08-07T07:27:35.268Z,20.90
2022-08-07T07:30:09.136Z,21.10
2022-08-07T07:32:40.558Z,21.30
2022-08-07T07:35:11.869Z,21.50
2022-08-07T07:37:47.353Z,21.80
2022-08-07T07:40:25.278Z,22.20
2022-08-07T07:42:55.578Z,22.40
2022-08-07T07:46:50.395Z,22.70
2022-08-07T07:48:24.038Z,22.90
2022-08-07T07:51:08.143Z,23.10
2022-08-07T07:53:51.683Z,23.30
2022-08-07T07:56:29.928Z,23.50
2022-08-07T07:58:59.280Z,23.60
2022-08-07T08:02:04.033Z,23.60
2022-08-07T08:04:17.038Z,23.70
2022-08-07T08:06:50.855Z,23.90
2022-08-07T08:09:22.740Z,24.00
2022-08-07T08:12:01.726Z,24.00
2022-08-07T08:14:36.615Z,24.00
2022-08-07T08:17:55.632Z,24.10
2022-08-07T08:20:19.715Z,24.10
2022-08-07T08:23:10.568Z,24.40
2022-08-07T08:26:03.412Z,24.20
2022-08-07T08:28:47.855Z,24.70
2022-08-07T08:31:30.284Z,25.00
2022-08-07T08:34:27.087Z,25.10
2022-08-07T08:36:58.017Z,25.50
2022-08-07T08:39:38.958Z,25.80
2022-08-07T08:42:25.654Z,26.10
2022-08-07T08:45:41.941Z,26.40
2022-08-07T08:48:32.625Z,26.60
2022-08-07T08:51:14.543Z,26.30
2022-08-07T08:53:58.354Z,26.20
2022-08-07T08:56:53.757Z,26.50
2022-08-07T09:00:15.398Z,26.40
2022-08-07T09:03:00.871Z,26.20
2022-08-07T09:05:50.737Z,26.40
2022-08-07T09:08:46.850Z,26.60
2022-08-07T09:11:24.771Z,26.80
2022-08-07T09:14:36.434Z,26.70
2022-08-07T09:17:58.896Z,26.90
2022-08-07T09:20:58.435Z,27.00
2022-08-07T09:24:32.765Z,26.70
2022-08-07T09:27:04.599Z,26.70
2022-08-07T09:30:04.471Z,26.90
2022-08-07T09:33:16.530Z,27.20
2022-08-07T09:36:04.506Z,27.10
2022-08-07T09:38:43.588Z,27.50
2022-08-07T09:41:28.064Z,27.60
2022-08-07T09:44:32.972Z,27.80
2022-08-07T09:47:51.998Z,27.70
2022-08-07T09:50:20.830Z,27.80
2022-08-07T09:52:53.804Z,28.00
2022-08-07T09:56:04.266Z,27.90
2022-08-07T09:58:32.358Z,28.10
2022-08-07T10:01:03.779Z,28.00
2022-08-07T10:04:05.083Z,28.00
2022-08-07T10:06:54.056Z,27.90
2022-08-07T10:10:02.962Z,28.00
2022-08-07T10:12:39.762Z,28.30
2022-08-07T10:15:15.291Z,28.40
2022-08-07T10:18:09.742Z,27.80
2022-08-07T10:21:50.502Z,27.90
2022-08-07T10:24:11.394Z,28.20
2022-08-07T10:27:10.851Z,28.50
2022-08-07T10:30:07.227Z,28.50
2022-08-07T10:33:14.795Z,28.90
2022-08-07T10:36:10.992Z,29.20
2022-08-07T10:39:05.476Z,29.20
2022-08-07T10:41:47.070Z,29.20
2022-08-07T10:44:39.241Z,29.10
2022-08-07T10:47:26.917Z,29.00
2022-08-07T10:50:35.206Z,28.90
2022-08-07T10:53:26.139Z,29.10
2022-08-07T10:56:05.219Z,29.20
2022-08-07T10:58:47.606Z,29.00
2022-08-07T11:01:18.998Z,28.90
2022-08-07T11:04:31.509Z,28.50
2022-08-07T11:07:56.394Z,28.60
2022-08-07T11:10:17.518Z,28.50
2022-08-07T11:14:41.943Z,28.40
2022-08-07T11:16:36.425Z,28.30
2022-08-07T11:19:27.438Z,28.40
2022-08-07T11:22:05.112Z,28.50
2022-08-07T11:24:53.158Z,28.90
2022-08-07T11:27:33.442Z,29.10
2022-08-07T11:30:19.179Z,28.90
2022-08-07T11:32:54.121Z,29.10
2022-08-07T11:35:33.271Z,29.10
2022-08-07T11:38:38.174Z,28.90
2022-08-07T11:41:22.126Z,28.70
2022-08-07T11:44:23.237Z,28.70
2022-08-07T11:47:39.139Z,28.50
2022-08-07T11:50:36.202Z,28.40
2022-08-07T11:53:43.433Z,28.60
2022-08-07T11:56:32.000Z,28.30
2022-08-07T12:00:07.651Z,28.40
2022-08-07T12:02:20.895Z,28.80
2022-08-07T12:05:50.437Z,29.10
2022-08-07T12:08:25.894Z,29.30
2022-08-07T12:11:21.128Z,29.30
2022-08-07T12:14:09.726Z,29.20
2022-08-07T12:16:43.791Z,29.10
2022-08-07T12:19:21.820Z,28.80
2022-08-07T12:22:38.898Z,28.10
2022-08-07T12:26:02.952Z,27.80
2022-08-07T12:28:56.796Z,27.80
2022-08-07T12:32:15.554Z,27.90
2022-08-07T12:34:49.406Z,28.10
2022-08-07T12:37:28.562Z,28.30
2022-08-07T12:40:44.957Z,28.50
2022-08-07T12:43:03.278Z,28.50
2022-08-07T12:46:30.340Z,28.60
2022-08-07T12:49:39.918Z,28.90
2022-08-07T12:52:19.321Z,29.30
2022-08-07T12:55:05.321Z,29.20
2022-08-07T12:57:39.009Z,29.30
2022-08-07T13:00:50.194Z,29.50
2022-08-07T13:03:59.315Z,29.80
2022-08-07T13:07:00.307Z,30.20
2022-08-07T13:10:20.454Z,29.90
2022-08-07T13:13:48.606Z,29.30
2022-08-07T13:16:38.916Z,29.00
2022-08-07T13:19:50.899Z,29.30
2022-08-07T13:22:28.068Z,29.50
2022-08-07T13:25:24.262Z,29.20
2022-08-07T13:28:12.459Z,29.00
2022-08-07T13:30:49.068Z,28.70
2022-08-07T13:34:34.475Z,28.60
2022-08-07T13:36:39.366Z,28.70
2022-08-07T13:39:28.720Z,28.90
2022-08-07T13:42:10.000Z,29.20
2022-08-07T13:44:39.561Z,29.40
2022-08-07T13:47:09.554Z,29.50
2022-08-07T13:50:32.720Z,29.60
2022-08-07T13:52:36.454Z,29.40
2022-08-07T13:55:19.556Z,29.30
2022-08-07T13:58:27.560Z,29.20
2022-08-07T14:01:10.001Z,28.60
2022-08-07T14:04:08.103Z,28.50
2022-08-07T14:06:46.973Z,28.70
2022-08-07T14:10:01.509Z,28.70
2022-08-07T14:12:13.796Z,28.80
2022-08-07T14:14:47.943Z,28.90
2022-08-07T14:18:12.105Z,28.80
2022-08-07T14:20:42.700Z,28.80
2022-08-07T14:24:00.610Z,29.10
2022-08-07T14:26:29.970Z,29.10
2022-08-07T14:29:10.493Z,29.20
2022-08-07T14:31:56.391Z,29.10
2022-08-07T14:34:29.568Z,29.10
2022-08-07T14:37:01.717Z,29.10
2022-08-07T14:40:17.646Z,28.80
2022-08-07T14:42:27.528Z,28.60
2022-08-07T14:45:21.898Z,28.50
2022-08-07T14:47:50.269Z,28.60
2022-08-07T14:50:22.636Z,28.70
2022-08-07T14:52:53.006Z,28.80
2022-08-07T14:55:20.745Z,29.00
2022-08-07T14:57:55.247Z,28.90
2022-08-07T15:00:30.866Z,29.00
2022-08-07T15:03:18.671Z,28.90
2022-08-07T15:11:53.211Z,28.90
2022-08-07T15:14:25.608Z,28.80
2022-08-07T15:17:01.835Z,28.60
2022-08-07T15:20:30.654Z,28.60
2022-08-07T15:22:33.769Z,28.40
2022-08-07T15:25:19.423Z,28.10
2022-08-07T15:28:30.823Z,28.00
2022-08-07T15:33:33.993Z,28.10
2022-08-07T15:36:06.565Z,28.10
2022-08-07T15:42:45.653Z,28.00
2022-08-07T15:44:15.226Z,27.90
2022-08-07T15:50:04.453Z,27.90
2022-08-07T15:52:30.730Z,27.90
2022-08-07T15:55:03.393Z,27.60
2022-08-07T15:57:47.705Z,27.50
2022-08-07T16:00:31.487Z,27.40
2022-08-07T16:03:21.381Z,27.50
2022-08-07T16:06:06.064Z,27.50
2022-08-07T16:08:40.433Z,27.50
2022-08-07T16:12:00.081Z,27.40
2022-08-07T16:14:48.664Z,27.50
2022-08-07T16:18:02.216Z,27.30
2022-08-07T16:21:53.735Z,27.10
2022-08-07T16:24:34.683Z,27.20
2022-08-07T16:27:18.302Z,26.90
2022-08-07T16:30:31.566Z,26.90
2022-08-07T16:34:02.367Z,26.60
2022-08-07T16:36:06.826Z,26.60
2022-08-07T16:39:10.143Z,26.60
2022-08-07T16:41:48.705Z,26.60
2022-08-07T16:45:06.556Z,26.60
2022-08-07T16:47:51.122Z,26.60
2022-08-07T16:50:52.638Z,26.70
2022-08-07T16:54:08.882Z,26.80
2022-08-07T16:56:54.985Z,26.60
2022-08-07T16:59:46.104Z,26.50
2022-08-07T17:03:04.875Z,26.50
2022-08-07T17:06:26.545Z,26.60
2022-08-07T17:08:51.302Z,26.70
2022-08-07T17:12:05.268Z,26.60
2022-08-07T17:14:59.141Z,26.40
2022-08-07T17:17:52.274Z,26.50
2022-08-07T17:20:46.661Z,26.50
2022-08-07T17:23:22.332Z,26.50
2022-08-07T17:26:22.867Z,26.40
2022-08-07T17:29:09.391Z,26.50
2022-08-07T17:32:30.686Z,26.80
2022-08-07T17:35:49.903Z,27.30
2022-08-07T17:38:32.074Z,28.20
2022-08-07T17:42:00.940Z,28.60
2022-08-07T17:44:05.838Z,28.10
2022-08-07T17:47:00.009Z,27.40
2022-08-07T17:49:45.975Z,26.80
2022-08-07T17:52:39.691Z,26.50
2022-08-07T17:55:12.675Z,26.20
2022-08-07T17:58:04.158Z,26.00
2022-08-07T18:00:48.788Z,25.90
2022-08-07T18:03:25.489Z,25.70
2022-08-07T18:06:09.366Z,25.60
2022-08-07T18:09:01.397Z,25.50
2022-08-07T18:12:16.404Z,25.30
2022-08-07T18:14:46.006Z,25.30
2022-08-07T18:18:33.059Z,25.00
2022-08-07T18:21:09.618Z,25.00
2022-08-07T18:23:57.450Z,24.80
2022-08-07T18:26:44.742Z,24.60
2022-08-07T18:30:07.918Z,24.50
2022-08-07T18:33:10.411Z,24.50
2022-08-07T18:36:01.961Z,24.40
2022-08-07T18:39:01.507Z,24.30
2022-08-07T18:42:01.771Z,24.10
2022-08-07T18:48:01.112Z,23.80
2022-08-07T18:51:01.489Z,23.70
2022-08-07T18:53:57.109Z,23.50
2022-08-07T18:56:32.999Z,23.40
2022-08-07T18:59:47.412Z,23.10
2022-08-07T19:02:32.103Z,23.00
2022-08-07T19:05:25.076Z,22.80
2022-08-07T19:08:06.038Z,22.70
2022-08-07T19:10:51.205Z,22.50
2022-08-07T19:13:43.795Z,22.40
2022-08-07T19:17:04.212Z,22.30
2022-08-07T19:19:42.347Z,22.20
2022-08-07T19:22:31.214Z,22.00
2022-08-07T19:24:58.779Z,21.90
2022-08-07T19:28:29.402Z,21.80
2022-08-07T19:31:00.843Z,21.60
2022-08-07T19:33:15.853Z,21.50
2022-08-07T19:35:56.811Z,21.40
2022-08-07T19:38:29.034Z,21.30
2022-08-07T19:40:59.687Z,21.10
2022-08-07T19:43:50.123Z,20.90
2022-08-07T19:46:26.396Z,20.90
2022-08-07T19:49:15.044Z,20.70
2022-08-07T19:51:53.125Z,20.60
2022-08-07T19:54:32.522Z,20.50
2022-08-07T19:57:56.761Z,20.40
2022-08-07T19:59:57.164Z,20.30
2022-08-07T20:02:52.153Z,20.20
2022-08-07T20:05:28.020Z,20.00
2022-08-07T20:08:02.018Z,19.90
2022-08-07T20:10:35.582Z,19.80
2022-08-07T20:13:27.263Z,19.70
2022-08-07T20:16:00.830Z,19.60
2022-08-07T20:18:32.000Z,19.50
2022-08-07T20:21:02.968Z,19.40
2022-08-07T20:23:43.124Z,19.30
2022-08-07T20:26:29.573Z,19.20
2022-08-07T20:29:01.546Z,19.10
2022-08-07T20:31:45.600Z,19.00
2022-08-07T20:34:15.023Z,18.90
2022-08-07T20:36:43.924Z,18.70
2022-08-07T20:40:01.077Z,18.60
2022-08-07T20:42:14.577Z,18.60
2022-08-07T20:44:49.333Z,18.50
2022-08-07T20:47:55.174Z,18.40
2022-08-07T20:50:09.212Z,18.30
2022-08-07T20:52:51.231Z,18.20
2022-08-07T20:55:23.640Z,18.10
2022-08-07T20:58:02.722Z,18.00
2022-08-07T21:00:44.223Z,17.90
2022-08-07T21:03:19.309Z,17.90
2022-08-07T21:06:21.522Z,17.80
2022-08-07T21:09:14.211Z,17.60
2022-08-07T21:11:50.210Z,17.60
2022-08-07T21:14:33.460Z,17.60
2022-08-07T21:18:02.994Z,17.60
2022-08-07T21:20:05.088Z,17.50
2022-08-07T21:22:44.756Z,17.50
2022-08-07T21:25:45.331Z,17.40
2022-08-07T21:28:48.804Z,17.30
2022-08-07T21:31:49.723Z,17.30
2022-08-07T21:34:34.394Z,17.20
2022-08-07T21:37:58.610Z,17.10
2022-08-07T21:40:38.350Z,17.00
2022-08-07T21:43:36.606Z,16.90
2022-08-07T21:46:25.148Z,16.80
2022-08-07T21:49:21.154Z,16.80
2022-08-07T21:51:57.974Z,16.80
2022-08-07T21:54:33.867Z,16.80
2022-08-07T21:57:31.487Z,16.70
2022-08-07T22:00:22.085Z,16.70
2022-08-07T22:03:16.740Z,16.60
2022-08-07T22:05:55.879Z,16.60
2022-08-07T22:08:27.454Z,16.60
2022-08-07T22:11:03.885Z,16.50
2022-08-07T22:13:52.699Z,16.50
2022-08-07T22:16:43.511Z,16.40
2022-08-07T22:19:30.523Z,16.40
2022-08-07T22:22:18.121Z,16.30
2022-08-07T22:25:08.269Z,16.20
2022-08-07T22:28:08.371Z,16.20
2022-08-07T22:30:58.360Z,16.10
2022-08-07T22:33:53.209Z,16.00
2022-08-07T22:36:34.139Z,15.90
2022-08-07T22:39:52.418Z,15.90
2022-08-07T22:42:25.635Z,15.90
2022-08-07T22:44:59.048Z,15.80
2022-08-07T22:47:52.024Z,15.80
2022-08-07T22:50:34.031Z,15.70
2022-08-07T22:53:00.765Z,15.60
2022-08-07T22:55:57.002Z,15.60
2022-08-07T22:58:32.944Z,15.60
2022-08-07T23:01:27.279Z,15.60
2022-08-07T23:04:30.120Z,15.50
2022-08-07T23:07:39.099Z,15.40
2022-08-07T23:10:41.870Z,15.40
2022-08-07T23:13:49.279Z,15.40
2022-08-07T23:16:46.363Z,15.30
2022-08-07T23:20:51.518Z,15.30
2022-08-07T23:24:05.144Z,15.20
2022-08-07T23:26:23.353Z,15.10
2022-08-07T23:29:43.443Z,15.00
2022-08-07T23:34:22.418Z,15.00
2022-08-07T23:36:03.565Z,14.90
2022-08-07T23:39:01.387Z,14.90
2022-08-07T23:42:04.910Z,14.80
2022-08-07T23:45:05.883Z,14.80
2022-08-07T23:48:04.577Z,14.70
2022-08-07T23:50:55.799Z,14.70
2022-08-07T23:53:51.374Z,14.70
2022-08-07T23:56:35.177Z,14.70
